CheckWX is a tool to help pilots better visualize weather data.  It is not intended as a substitute for an official pre-flight weather briefing.

14:39:14 UTC

KBVY METAR
Beverly Regional Airport
Beverly, Massachusetts, USA
Current

25 mins ago

KBVY 261414Z 12012KT 4SM -RA BR BKN008 OVC013 08/06 A2990 RMK AO2 P0002 T00780056
Observed
Apr-26 @ 14:14 UTC
Wind
  • 120° at 12 KTS
Visibility
4 SM
Flight Rules
IFR
Conditions
Light Rain, Mist
Cloud Levels
  • Broken at 800' AGL
  • Overcast at 1,300' AGL
Temperature
C / 46°F
Dewpoint
C / 43°F
Humidity
87%
Altimeter
29.9" Hg
Pressure
1012.52 hPa
Current Rain
0.02"
Previous

46 mins ago

KBVY 261353Z 12008KT 5SM -RA BR SCT008 OVC013 08/06 A2991 RMK AO2 SLP123 P0007 T00780056
Observed
Apr-26 @ 13:53 UTC
Wind
  • 120° at 8 KTS
Visibility
5 SM
Flight Rules
MVFR
Conditions
Light Rain, Mist
Cloud Levels
  • Scattered at 800' AGL
  • Overcast at 1,300' AGL
Temperature
C / 46°F
Dewpoint
C / 43°F
Humidity
87%
Altimeter
29.91" Hg
Pressure
1012.92 hPa
Current Rain
0.07"
Previous

58 mins ago

KBVY 261341Z 13010KT 5SM -RA BR FEW009 OVC013 08/06 A2992 RMK AO2 P0006 T00780056
Observed
Apr-26 @ 13:41 UTC
Wind
  • 130° at 10 KTS
Visibility
5 SM
Flight Rules
MVFR
Conditions
Light Rain, Mist
Cloud Levels
  • Few at 900' AGL
  • Overcast at 1,300' AGL
Temperature
C / 46°F
Dewpoint
C / 43°F
Humidity
87%
Altimeter
29.92" Hg
Pressure
1013.22 hPa
Current Rain
0.06"